sensor_id;sensor_type;location;lat;lon;timestamp;pressure;altitude;pressure_sealevel;temperature;humidity
69200;BME280;56313;49.804;9.952;2022-07-29T00:00:05;99119.06;;;20.44;39.67
69200;BME280;56313;49.804;9.952;2022-07-29T00:02:42;99123.34;;;20.45;39.62
69200;BME280;56313;49.804;9.952;2022-07-29T00:05:10;99125.22;;;20.37;39.86
69200;BME280;56313;49.804;9.952;2022-07-29T00:07:58;99132.88;;;20.27;39.59
69200;BME280;56313;49.804;9.952;2022-07-29T00:10:27;99133.31;;;20.49;39.58
69200;BME280;56313;49.804;9.952;2022-07-29T00:13:13;99126.88;;;20.38;39.02
69200;BME280;56313;49.804;9.952;2022-07-29T00:15:41;99131.50;;;20.50;39.99
69200;BME280;56313;49.804;9.952;2022-07-29T00:18:09;99136.06;;;20.36;39.35
69200;BME280;56313;49.804;9.952;2022-07-29T00:20:41;99141.75;;;20.72;54.34
69200;BME280;56313;49.804;9.952;2022-07-29T00:23:15;99136.88;;;20.69;42.37
69200;BME280;56313;49.804;9.952;2022-07-29T00:25:50;99133.59;;;20.41;39.74
69200;BME280;56313;49.804;9.952;2022-07-29T00:28:23;99139.41;;;20.31;40.27
69200;BME280;56313;49.804;9.952;2022-07-29T00:30:54;99123.59;;;20.04;40.57
69200;BME280;56313;49.804;9.952;2022-07-29T00:33:22;99122.22;;;19.88;40.40
69200;BME280;56313;49.804;9.952;2022-07-29T00:35:51;99121.34;;;19.94;40.90
69200;BME280;56313;49.804;9.952;2022-07-29T00:38:18;99124.63;;;19.96;40.43
69200;BME280;56313;49.804;9.952;2022-07-29T00:40:57;99120.53;;;20.00;40.30
69200;BME280;56313;49.804;9.952;2022-07-29T00:43:23;99119.09;;;20.05;40.36
69200;BME280;56313;49.804;9.952;2022-07-29T00:45:51;99112.16;;;19.97;40.55
69200;BME280;56313;49.804;9.952;2022-07-29T00:48:21;99111.03;;;19.79;40.74
69200;BME280;56313;49.804;9.952;2022-07-29T00:50:49;99102.25;;;19.72;40.90
69200;BME280;56313;49.804;9.952;2022-07-29T00:53:26;99104.13;;;19.65;41.49
69200;BME280;56313;49.804;9.952;2022-07-29T00:56:01;99105.72;;;19.72;41.76
69200;BME280;56313;49.804;9.952;2022-07-29T00:58:29;99109.44;;;19.65;42.17
69200;BME280;56313;49.804;9.952;2022-07-29T01:01:00;99118.44;;;19.70;42.19
69200;BME280;56313;49.804;9.952;2022-07-29T01:03:25;99120.13;;;19.51;42.52
69200;BME280;56313;49.804;9.952;2022-07-29T01:05:56;99122.84;;;19.31;42.49
69200;BME280;56313;49.804;9.952;2022-07-29T01:08:24;99117.56;;;19.24;42.32
69200;BME280;56313;49.804;9.952;2022-07-29T01:10:53;99107.09;;;19.29;42.03
69200;BME280;56313;49.804;9.952;2022-07-29T01:13:20;99102.59;;;19.36;41.59
69200;BME280;56313;49.804;9.952;2022-07-29T01:18:46;99093.78;;;19.49;40.97
69200;BME280;56313;49.804;9.952;2022-07-29T01:21:51;99105.97;;;19.64;41.42
69200;BME280;56313;49.804;9.952;2022-07-29T01:24:51;99104.63;;;19.48;41.33
69200;BME280;56313;49.804;9.952;2022-07-29T01:30:25;99094.00;;;19.41;41.53
69200;BME280;56313;49.804;9.952;2022-07-29T01:33:00;99094.78;;;19.48;41.10
69200;BME280;56313;49.804;9.952;2022-07-29T01:35:48;99093.19;;;19.41;41.17
69200;BME280;56313;49.804;9.952;2022-07-29T01:38:23;99100.34;;;19.40;41.31
69200;BME280;56313;49.804;9.952;2022-07-29T01:44:11;99098.91;;;19.44;41.10
69200;BME280;56313;49.804;9.952;2022-07-29T01:46:44;99085.44;;;19.39;40.98
69200;BME280;56313;49.804;9.952;2022-07-29T01:49:46;99098.09;;;19.37;40.92
69200;BME280;56313;49.804;9.952;2022-07-29T01:52:23;99081.97;;;19.32;41.19
69200;BME280;56313;49.804;9.952;2022-07-29T01:54:58;99080.13;;;19.39;41.00
69200;BME280;56313;49.804;9.952;2022-07-29T01:57:29;99080.56;;;19.29;41.55
69200;BME280;56313;49.804;9.952;2022-07-29T02:00:17;99089.34;;;19.23;41.72
69200;BME280;56313;49.804;9.952;2022-07-29T02:03:05;99085.28;;;19.20;41.72
69200;BME280;56313;49.804;9.952;2022-07-29T02:05:41;99084.91;;;19.10;41.99
69200;BME280;56313;49.804;9.952;2022-07-29T02:08:08;99084.69;;;19.11;42.20
69200;BME280;56313;49.804;9.952;2022-07-29T02:10:50;99089.59;;;19.08;42.40
69200;BME280;56313;49.804;9.952;2022-07-29T02:13:30;99086.97;;;19.08;42.19
69200;BME280;56313;49.804;9.952;2022-07-29T02:16:08;99091.22;;;19.09;42.29
69200;BME280;56313;49.804;9.952;2022-07-29T02:19:00;99079.59;;;19.03;41.95
69200;BME280;56313;49.804;9.952;2022-07-29T02:21:48;99082.63;;;19.07;41.77
69200;BME280;56313;49.804;9.952;2022-07-29T02:25:02;99073.25;;;19.04;41.89
69200;BME280;56313;49.804;9.952;2022-07-29T02:27:54;99077.72;;;19.04;41.98
69200;BME280;56313;49.804;9.952;2022-07-29T02:30:44;99078.56;;;18.97;41.98
69200;BME280;56313;49.804;9.952;2022-07-29T02:33:18;99081.03;;;18.79;42.38
69200;BME280;56313;49.804;9.952;2022-07-29T02:36:05;99083.28;;;18.89;42.42
69200;BME280;56313;49.804;9.952;2022-07-29T02:38:45;99083.91;;;18.84;42.53
69200;BME280;56313;49.804;9.952;2022-07-29T02:42:00;99085.34;;;18.80;42.50
69200;BME280;56313;49.804;9.952;2022-07-29T02:44:34;99083.28;;;18.82;42.37
69200;BME280;56313;49.804;9.952;2022-07-29T02:50:37;99099.81;;;18.77;42.54
69200;BME280;56313;49.804;9.952;2022-07-29T02:53:32;99089.81;;;18.72;42.48
69200;BME280;56313;49.804;9.952;2022-07-29T02:59:25;99087.75;;;18.81;42.51
69200;BME280;56313;49.804;9.952;2022-07-29T03:01:58;99084.91;;;18.76;42.63
69200;BME280;56313;49.804;9.952;2022-07-29T03:04:28;99083.88;;;18.77;45.95
69200;BME280;56313;49.804;9.952;2022-07-29T03:07:04;99082.66;;;18.73;42.73
69200;BME280;56313;49.804;9.952;2022-07-29T03:09:30;99081.03;;;18.79;42.89
69200;BME280;56313;49.804;9.952;2022-07-29T03:11:56;99082.25;;;18.83;42.58
69200;BME280;56313;49.804;9.952;2022-07-29T03:14:46;99075.94;;;18.84;42.25
69200;BME280;56313;49.804;9.952;2022-07-29T03:17:19;99082.88;;;18.71;43.84
69200;BME280;56313;49.804;9.952;2022-07-29T03:19:58;99079.41;;;18.71;42.79
69200;BME280;56313;49.804;9.952;2022-07-29T03:22:25;99086.56;;;18.70;42.71
69200;BME280;56313;49.804;9.952;2022-07-29T03:24:55;99081.69;;;18.60;42.80
69200;BME280;56313;49.804;9.952;2022-07-29T03:27:24;99082.09;;;18.57;43.13
69200;BME280;56313;49.804;9.952;2022-07-29T03:32:52;99084.13;;;18.48;43.13
69200;BME280;56313;49.804;9.952;2022-07-29T03:36:01;99086.16;;;18.46;43.08
69200;BME280;56313;49.804;9.952;2022-07-29T03:38:33;99086.97;;;18.40;43.46
69200;BME280;56313;49.804;9.952;2022-07-29T03:41:32;99086.69;;;18.08;44.75
69200;BME280;56313;49.804;9.952;2022-07-29T03:47:26;99075.97;;;18.36;43.90
69200;BME280;56313;49.804;9.952;2022-07-29T03:50:15;99086.16;;;18.46;43.57
69200;BME280;56313;49.804;9.952;2022-07-29T03:53:15;99088.19;;;18.44;44.38
69200;BME280;56313;49.804;9.952;2022-07-29T03:55:43;99085.72;;;18.43;44.46
69200;BME280;56313;49.804;9.952;2022-07-29T03:58:41;99090.00;;;18.23;44.51
69200;BME280;56313;49.804;9.952;2022-07-29T04:01:28;99090.81;;;18.31;45.57
69200;BME280;56313;49.804;9.952;2022-07-29T04:04:08;99082.25;;;18.35;43.71
69200;BME280;56313;49.804;9.952;2022-07-29T04:06:46;99091.66;;;18.38;43.55
69200;BME280;56313;49.804;9.952;2022-07-29T04:09:24;99086.34;;;18.45;43.55
69200;BME280;56313;49.804;9.952;2022-07-29T04:12:00;99083.50;;;18.46;43.53
69200;BME280;56313;49.804;9.952;2022-07-29T04:14:34;99085.94;;;18.48;43.34
69200;BME280;56313;49.804;9.952;2022-07-29T04:17:28;99087.97;;;18.46;43.44
69200;BME280;56313;49.804;9.952;2022-07-29T04:20:02;99089.22;;;18.50;43.58
69200;BME280;56313;49.804;9.952;2022-07-29T04:22:30;99090.03;;;18.44;43.66
69200;BME280;56313;49.804;9.952;2022-07-29T04:25:14;99093.69;;;18.49;43.99
69200;BME280;56313;49.804;9.952;2022-07-29T04:27:57;99094.69;;;18.21;44.51
69200;BME280;56313;49.804;9.952;2022-07-29T04:30:50;99091.94;;;17.94;45.08
69200;BME280;56313;49.804;9.952;2022-07-29T04:33:35;99096.22;;;17.89;45.34
69200;BME280;56313;49.804;9.952;2022-07-29T04:36:06;99090.09;;;17.81;45.65
69200;BME280;56313;49.804;9.952;2022-07-29T04:38:36;99092.78;;;18.02;45.70
69200;BME280;56313;49.804;9.952;2022-07-29T04:41:15;99098.06;;;17.95;45.32
69200;BME280;56313;49.804;9.952;2022-07-29T04:46:57;99090.13;;;17.95;45.64
69200;BME280;56313;49.804;9.952;2022-07-29T04:52:27;99093.22;;;18.05;45.66
69200;BME280;56313;49.804;9.952;2022-07-29T04:54:58;99090.78;;;18.10;45.43
69200;BME280;56313;49.804;9.952;2022-07-29T04:57:34;99094.69;;;18.28;45.56
69200;BME280;56313;49.804;9.952;2022-07-29T05:03:41;99098.16;;;18.15;45.15
69200;BME280;56313;49.804;9.952;2022-07-29T05:06:45;99088.97;;;18.18;45.30
69200;BME280;56313;49.804;9.952;2022-07-29T05:09:19;99101.84;;;18.34;45.43
69200;BME280;56313;49.804;9.952;2022-07-29T05:11:57;99097.53;;;18.27;45.28
69200;BME280;56313;49.804;9.952;2022-07-29T05:14:23;99093.50;;;18.38;46.13
69200;BME280;56313;49.804;9.952;2022-07-29T05:16:51;99098.19;;;18.49;47.42
69200;BME280;56313;49.804;9.952;2022-07-29T05:19:28;99104.53;;;18.75;45.79
69200;BME280;56313;49.804;9.952;2022-07-29T05:22:12;99102.84;;;18.87;44.54
69200;BME280;56313;49.804;9.952;2022-07-29T05:24:50;99099.81;;;18.84;43.76
69200;BME280;56313;49.804;9.952;2022-07-29T05:27:19;99096.94;;;18.92;43.71
69200;BME280;56313;49.804;9.952;2022-07-29T05:49:58;99106.84;;;20.61;40.55
69200;BME280;56313;49.804;9.952;2022-07-29T06:13:02;99102.25;;;21.20;40.11
69200;BME280;56313;49.804;9.952;2022-07-29T06:16:02;99103.78;;;21.84;39.05
69200;BME280;56313;49.804;9.952;2022-07-29T06:33:22;99102.59;;;22.10;39.41
69200;BME280;56313;49.804;9.952;2022-07-29T07:40:36;99091.34;;;23.93;43.64
69200;BME280;56313;49.804;9.952;2022-07-29T07:43:25;99091.44;;;24.45;36.67
69200;BME280;56313;49.804;9.952;2022-07-29T07:45:51;99089.00;;;24.43;43.71
69200;BME280;56313;49.804;9.952;2022-07-29T07:48:16;99093.88;;;24.29;38.57
69200;BME280;56313;49.804;9.952;2022-07-29T07:50:52;99091.66;;;23.38;41.86
69200;BME280;56313;49.804;9.952;2022-07-29T07:53:22;99086.72;;;24.52;36.72
69200;BME280;56313;49.804;9.952;2022-07-29T07:55:48;99091.09;;;24.58;36.66
69200;BME280;56313;49.804;9.952;2022-07-29T07:58:16;99087.44;;;24.47;41.04
69200;BME280;56313;49.804;9.952;2022-07-29T08:04:07;99082.16;;;24.70;36.60
69200;BME280;56313;49.804;9.952;2022-07-29T08:06:51;99086.38;;;24.65;37.70
69200;BME280;56313;49.804;9.952;2022-07-29T08:09:29;99092.41;;;24.90;43.50
69200;BME280;56313;49.804;9.952;2022-07-29T08:12:27;99083.00;;;22.71;50.32
69200;BME280;56313;49.804;9.952;2022-07-29T08:15:03;99088.97;;;22.43;52.79
69200;BME280;56313;49.804;9.952;2022-07-29T08:17:33;99089.03;;;22.12;53.83
69200;BME280;56313;49.804;9.952;2022-07-29T08:20:03;99093.63;;;22.47;53.44
69200;BME280;56313;49.804;9.952;2022-07-29T09:02:18;99095.91;;;22.20;55.04
69200;BME280;56313;49.804;9.952;2022-07-29T09:04:56;99095.41;;;22.23;55.18
69200;BME280;56313;49.804;9.952;2022-07-29T09:14:31;99103.81;;;24.16;46.47
69200;BME280;56313;49.804;9.952;2022-07-29T09:17:17;99099.22;;;22.58;53.89
69200;BME280;56313;49.804;9.952;2022-07-29T09:19:56;99090.41;;;22.81;53.52
69200;BME280;56313;49.804;9.952;2022-07-29T09:26:47;99094.50;;;22.60;54.19
69200;BME280;56313;49.804;9.952;2022-07-29T09:29:23;99097.44;;;22.51;55.05
69200;BME280;56313;49.804;9.952;2022-07-29T09:35:22;99095.16;;;22.00;57.02
69200;BME280;56313;49.804;9.952;2022-07-29T09:41:08;99102.59;;;22.65;52.92
69200;BME280;56313;49.804;9.952;2022-07-29T09:53:40;99098.09;;;22.77;51.25
69200;BME280;56313;49.804;9.952;2022-07-29T09:56:11;99092.34;;;23.46;52.45
69200;BME280;56313;49.804;9.952;2022-07-29T10:02:22;99093.78;;;23.95;47.64
69200;BME280;56313;49.804;9.952;2022-07-29T10:08:52;99080.00;;;23.45;52.16
69200;BME280;56313;49.804;9.952;2022-07-29T10:11:29;99083.00;;;23.60;47.45
69200;BME280;56313;49.804;9.952;2022-07-29T10:14:22;99090.34;;;23.82;45.74
69200;BME280;56313;49.804;9.952;2022-07-29T10:22:58;99081.34;;;24.17;42.88
69200;BME280;56313;49.804;9.952;2022-07-29T10:25:25;99089.13;;;23.73;45.49
69200;BME280;56313;49.804;9.952;2022-07-29T10:27:53;99095.34;;;24.08;44.43
69200;BME280;56313;49.804;9.952;2022-07-29T10:30:26;99093.00;;;23.82;44.63
69200;BME280;56313;49.804;9.952;2022-07-29T10:44:25;99095.09;;;23.92;42.83
69200;BME280;56313;49.804;9.952;2022-07-29T10:46:56;99094.53;;;24.07;43.04
69200;BME280;56313;49.804;9.952;2022-07-29T10:49:28;99094.50;;;23.90;43.14
69200;BME280;56313;49.804;9.952;2022-07-29T10:52:05;99094.66;;;23.83;44.32
69200;BME280;56313;49.804;9.952;2022-07-29T10:54:47;99093.88;;;24.00;42.76
69200;BME280;56313;49.804;9.952;2022-07-29T11:23:41;99076.78;;;24.70;42.23
69200;BME280;56313;49.804;9.952;2022-07-29T11:26:18;99075.19;;;24.68;40.64
69200;BME280;56313;49.804;9.952;2022-07-29T11:32:15;99070.31;;;24.83;40.23
69200;BME280;56313;49.804;9.952;2022-07-29T11:45:22;99059.06;;;24.46;41.94
69200;BME280;56313;49.804;9.952;2022-07-29T11:47:50;99060.38;;;23.97;46.00
69200;BME280;56313;49.804;9.952;2022-07-29T11:50:48;99053.25;;;23.86;48.91
69200;BME280;56313;49.804;9.952;2022-07-29T11:56:54;99043.81;;;25.03;43.89
69200;BME280;56313;49.804;9.952;2022-07-29T11:59:25;99045.78;;;24.51;41.48
69200;BME280;56313;49.804;9.952;2022-07-29T12:01:58;99047.31;;;25.26;39.05
69200;BME280;56313;49.804;9.952;2022-07-29T12:04:25;99043.00;;;25.48;39.09
69200;BME280;56313;49.804;9.952;2022-07-29T12:06:55;99033.34;;;25.74;38.68
69200;BME280;56313;49.804;9.952;2022-07-29T12:33:12;99019.84;;;25.64;39.17
69200;BME280;56313;49.804;9.952;2022-07-29T12:35:49;99015.28;;;25.92;40.51
69200;BME280;56313;49.804;9.952;2022-07-29T12:38:31;99010.41;;;25.11;44.38
69200;BME280;56313;49.804;9.952;2022-07-29T12:41:03;99021.00;;;24.61;42.13
69200;BME280;56313;49.804;9.952;2022-07-29T14:59:55;99026.88;;;22.11;73.96
69200;BME280;56313;49.804;9.952;2022-07-29T15:02:23;99034.31;;;21.79;71.08
69200;BME280;56313;49.804;9.952;2022-07-29T15:05:08;99041.31;;;21.80;72.87
69200;BME280;56313;49.804;9.952;2022-07-29T15:07:38;99037.75;;;21.67;72.43
69200;BME280;56313;49.804;9.952;2022-07-29T15:10:11;99047.72;;;21.72;67.87
69200;BME280;56313;49.804;9.952;2022-07-29T15:12:39;99056.28;;;21.93;66.56
69200;BME280;56313;49.804;9.952;2022-07-29T15:15:10;99055.16;;;22.00;70.77
69200;BME280;56313;49.804;9.952;2022-07-29T15:18:03;99055.69;;;21.90;65.93
69200;BME280;56313;49.804;9.952;2022-07-29T15:20:31;99068.41;;;21.76;65.68
69200;BME280;56313;49.804;9.952;2022-07-29T15:23:02;99073.09;;;21.74;69.04
69200;BME280;56313;49.804;9.952;2022-07-29T15:25:43;99080.63;;;21.47;66.89
69200;BME280;56313;49.804;9.952;2022-07-29T15:28:18;99087.66;;;21.22;68.86
69200;BME280;56313;49.804;9.952;2022-07-29T15:30:51;99089.81;;;21.51;66.92
69200;BME280;56313;49.804;9.952;2022-07-29T15:33:16;99082.63;;;21.51;65.55
69200;BME280;56313;49.804;9.952;2022-07-29T15:35:45;99088.25;;;21.43;66.71
69200;BME280;56313;49.804;9.952;2022-07-29T15:38:11;99099.06;;;21.48;66.52
69200;BME280;56313;49.804;9.952;2022-07-29T15:40:48;99096.41;;;21.48;65.60
69200;BME280;56313;49.804;9.952;2022-07-29T15:43:16;99101.63;;;21.55;69.40
69200;BME280;56313;49.804;9.952;2022-07-29T15:45:45;99097.50;;;21.41;66.51
69200;BME280;56313;49.804;9.952;2022-07-29T15:48:29;99100.84;;;21.36;69.31
69200;BME280;56313;49.804;9.952;2022-07-29T15:50:54;99097.44;;;21.29;69.92
69200;BME280;56313;49.804;9.952;2022-07-29T15:53:20;99095.00;;;21.27;72.71
69200;BME280;56313;49.804;9.952;2022-07-29T15:55:45;99101.69;;;20.92;75.25
69200;BME280;56313;49.804;9.952;2022-07-29T15:58:11;99105.00;;;20.87;76.14
69200;BME280;56313;49.804;9.952;2022-07-29T16:00:38;99114.50;;;21.02;76.66
69200;BME280;56313;49.804;9.952;2022-07-29T16:03:06;99106.03;;;21.31;68.66
69200;BME280;56313;49.804;9.952;2022-07-29T16:05:32;99108.00;;;21.54;67.40
69200;BME280;56313;49.804;9.952;2022-07-29T16:07:58;99106.78;;;21.38;66.96
69200;BME280;56313;49.804;9.952;2022-07-29T16:10:27;99097.50;;;21.41;66.74
69200;BME280;56313;49.804;9.952;2022-07-29T16:13:03;99084.84;;;21.36;67.41
69200;BME280;56313;49.804;9.952;2022-07-29T16:15:28;99080.19;;;21.50;65.33
69200;BME280;56313;49.804;9.952;2022-07-29T16:17:54;99076.53;;;21.44;66.42
69200;BME280;56313;49.804;9.952;2022-07-29T16:20:19;99076.38;;;20.83;70.45
69200;BME280;56313;49.804;9.952;2022-07-29T16:22:45;99087.56;;;20.66;70.19
69200;BME280;56313;49.804;9.952;2022-07-29T16:25:10;99087.88;;;20.51;69.36
69200;BME280;56313;49.804;9.952;2022-07-29T16:27:36;99086.06;;;20.51;71.11
69200;BME280;56313;49.804;9.952;2022-07-29T16:30:01;99091.06;;;20.67;68.93
69200;BME280;56313;49.804;9.952;2022-07-29T16:32:27;99091.88;;;21.30;66.52
69200;BME280;56313;49.804;9.952;2022-07-29T16:34:52;99099.06;;;21.30;66.33
69200;BME280;56313;49.804;9.952;2022-07-29T16:37:17;99100.09;;;21.29;68.14
69200;BME280;56313;49.804;9.952;2022-07-29T16:39:43;99100.03;;;20.66;68.78
69200;BME280;56313;49.804;9.952;2022-07-29T16:42:08;99094.34;;;21.32;65.81
69200;BME280;56313;49.804;9.952;2022-07-29T16:44:34;99099.13;;;21.42;65.35
69200;BME280;56313;49.804;9.952;2022-07-29T16:46:59;99104.09;;;21.38;66.16
69200;BME280;56313;49.804;9.952;2022-07-29T16:49:25;99115.16;;;20.97;69.27
69200;BME280;56313;49.804;9.952;2022-07-29T16:51:50;99106.38;;;21.16;68.30
69200;BME280;56313;49.804;9.952;2022-07-29T16:54:16;99107.81;;;20.67;69.09
69200;BME280;56313;49.804;9.952;2022-07-29T16:56:41;99103.81;;;21.27;65.86
69200;BME280;56313;49.804;9.952;2022-07-29T16:59:10;99098.41;;;21.34;66.01
69200;BME280;56313;49.804;9.952;2022-07-29T17:01:36;99101.41;;;21.19;67.92
69200;BME280;56313;49.804;9.952;2022-07-29T17:04:01;99093.00;;;21.22;66.63
69200;BME280;56313;49.804;9.952;2022-07-29T17:06:43;99088.78;;;21.33;65.92
69200;BME280;56313;49.804;9.952;2022-07-29T17:09:10;99090.19;;;21.17;68.27
69200;BME280;56313;49.804;9.952;2022-07-29T17:11:36;99076.06;;;21.17;67.65
69200;BME280;56313;49.804;9.952;2022-07-29T17:14:06;99078.88;;;20.77;69.79
69200;BME280;56313;49.804;9.952;2022-07-29T17:16:36;99078.66;;;20.79;70.58
69200;BME280;56313;49.804;9.952;2022-07-29T17:19:01;99080.06;;;20.82;69.97
69200;BME280;56313;49.804;9.952;2022-07-29T17:21:27;99089.81;;;20.95;69.14
69200;BME280;56313;49.804;9.952;2022-07-29T17:23:53;99100.09;;;20.84;72.31
69200;BME280;56313;49.804;9.952;2022-07-29T17:26:19;99114.09;;;20.73;70.64
69200;BME280;56313;49.804;9.952;2022-07-29T17:28:47;99125.56;;;20.73;73.17
69200;BME280;56313;49.804;9.952;2022-07-29T17:31:13;99129.09;;;20.67;70.22
69200;BME280;56313;49.804;9.952;2022-07-29T17:33:39;99161.31;;;20.59;70.55
69200;BME280;56313;49.804;9.952;2022-07-29T17:36:04;99170.53;;;20.56;71.37
69200;BME280;56313;49.804;9.952;2022-07-29T17:41:37;99192.31;;;20.07;72.36
69200;BME280;56313;49.804;9.952;2022-07-29T17:44:04;99191.44;;;20.13;71.17
69200;BME280;56313;49.804;9.952;2022-07-29T17:46:30;99194.38;;;20.37;71.38
69200;BME280;56313;49.804;9.952;2022-07-29T17:48:56;99202.56;;;20.36;72.59
69200;BME280;56313;49.804;9.952;2022-07-29T17:51:23;99206.41;;;20.08;73.03
69200;BME280;56313;49.804;9.952;2022-07-29T17:53:51;99202.75;;;19.88;73.09
69200;BME280;56313;49.804;9.952;2022-07-29T17:56:17;99207.22;;;20.02;74.18
69200;BME280;56313;49.804;9.952;2022-07-29T17:58:43;99195.59;;;20.03;73.68
69200;BME280;56313;49.804;9.952;2022-07-29T18:01:14;99192.69;;;20.11;72.43
69200;BME280;56313;49.804;9.952;2022-07-29T18:03:39;99195.97;;;20.13;73.20
69200;BME280;56313;49.804;9.952;2022-07-29T18:06:08;99195.00;;;20.33;74.14
69200;BME280;56313;49.804;9.952;2022-07-29T18:08:35;99197.09;;;20.31;73.10
69200;BME280;56313;49.804;9.952;2022-07-29T18:11:00;99193.59;;;20.30;73.52
69200;BME280;56313;49.804;9.952;2022-07-29T18:13:25;99206.69;;;20.32;74.73
69200;BME280;56313;49.804;9.952;2022-07-29T18:15:51;99209.00;;;20.60;72.34
69200;BME280;56313;49.804;9.952;2022-07-29T18:18:17;99210.47;;;20.49;75.87
69200;BME280;56313;49.804;9.952;2022-07-29T18:20:43;99206.06;;;20.36;74.69
69200;BME280;56313;49.804;9.952;2022-07-29T18:23:08;99209.56;;;20.30;74.88
69200;BME280;56313;49.804;9.952;2022-07-29T18:28:32;99209.06;;;20.47;75.03
69200;BME280;56313;49.804;9.952;2022-07-29T18:31:11;99217.44;;;20.11;76.24
69200;BME280;56313;49.804;9.952;2022-07-29T18:33:40;99212.22;;;19.71;77.15
69200;BME280;56313;49.804;9.952;2022-07-29T18:36:06;99218.16;;;19.66;78.52
69200;BME280;56313;49.804;9.952;2022-07-29T18:38:34;99225.88;;;19.88;78.50
69200;BME280;56313;49.804;9.952;2022-07-29T18:41:02;99232.03;;;20.34;75.72
69200;BME280;56313;49.804;9.952;2022-07-29T18:43:36;99228.03;;;20.57;72.86
69200;BME280;56313;49.804;9.952;2022-07-29T18:46:10;99236.97;;;20.70;72.05
69200;BME280;56313;49.804;9.952;2022-07-29T18:48:36;99250.91;;;20.65;72.43
69200;BME280;56313;49.804;9.952;2022-07-29T18:51:01;99251.28;;;20.36;73.42
69200;BME280;56313;49.804;9.952;2022-07-29T18:53:29;99256.47;;;20.11;74.64
69200;BME280;56313;49.804;9.952;2022-07-29T18:56:00;99245.97;;;20.69;72.23
69200;BME280;56313;49.804;9.952;2022-07-29T18:58:27;99255.50;;;20.90;69.83
69200;BME280;56313;49.804;9.952;2022-07-29T19:00:53;99254.91;;;20.81;72.14
69200;BME280;56313;49.804;9.952;2022-07-29T19:03:18;99251.47;;;20.74;73.37
69200;BME280;56313;49.804;9.952;2022-07-29T19:05:43;99251.91;;;20.32;74.20
69200;BME280;56313;49.804;9.952;2022-07-29T19:08:09;99254.94;;;19.69;76.96
69200;BME280;56313;49.804;9.952;2022-07-29T19:10:37;99257.22;;;19.39;78.46
69200;BME280;56313;49.804;9.952;2022-07-29T19:13:03;99261.91;;;19.50;79.89
69200;BME280;56313;49.804;9.952;2022-07-29T19:15:28;99269.03;;;19.70;79.08
69200;BME280;56313;49.804;9.952;2022-07-29T19:17:54;99264.25;;;19.99;78.49
69200;BME280;56313;49.804;9.952;2022-07-29T19:20:19;99267.44;;;19.55;78.41
69200;BME280;56313;49.804;9.952;2022-07-29T19:22:45;99278.44;;;19.59;80.49
69200;BME280;56313;49.804;9.952;2022-07-29T19:25:10;99278.66;;;19.57;80.91
69200;BME280;56313;49.804;9.952;2022-07-29T19:27:36;99276.63;;;19.46;79.45
69200;BME280;56313;49.804;9.952;2022-07-29T19:30:02;99282.97;;;19.58;80.95
69200;BME280;56313;49.804;9.952;2022-07-29T19:32:30;99285.84;;;19.43;81.12
69200;BME280;56313;49.804;9.952;2022-07-29T19:34:55;99285.03;;;19.36;80.71
69200;BME280;56313;49.804;9.952;2022-07-29T19:37:39;99276.22;;;19.22;80.75
69200;BME280;56313;49.804;9.952;2022-07-29T19:40:05;99274.19;;;19.17;81.89
69200;BME280;56313;49.804;9.952;2022-07-29T19:42:31;99269.69;;;19.31;82.38
69200;BME280;56313;49.804;9.952;2022-07-29T19:44:56;99267.66;;;19.27;81.96
69200;BME280;56313;49.804;9.952;2022-07-29T19:47:24;99273.50;;;19.83;78.28
69200;BME280;56313;49.804;9.952;2022-07-29T19:49:50;99275.78;;;19.59;80.57
69200;BME280;56313;49.804;9.952;2022-07-29T19:52:15;99277.09;;;20.68;72.04
69200;BME280;56313;49.804;9.952;2022-07-29T19:54:41;99275.63;;;20.40;75.59
69200;BME280;56313;49.804;9.952;2022-07-29T19:57:06;99274.53;;;19.75;79.34
69200;BME280;56313;49.804;9.952;2022-07-29T19:59:31;99281.72;;;19.54;79.81
69200;BME280;56313;49.804;9.952;2022-07-29T20:01:57;99282.56;;;19.34;80.39
69200;BME280;56313;49.804;9.952;2022-07-29T20:04:23;99282.56;;;19.28;80.22
69200;BME280;56313;49.804;9.952;2022-07-29T20:06:48;99283.59;;;19.27;80.36
69200;BME280;56313;49.804;9.952;2022-07-29T20:09:14;99286.84;;;19.22;80.34
69200;BME280;56313;49.804;9.952;2022-07-29T20:11:39;99295.16;;;18.98;80.42
69200;BME280;56313;49.804;9.952;2022-07-29T20:14:05;99313.31;;;18.88;81.45
69200;BME280;56313;49.804;9.952;2022-07-29T20:16:31;99320.75;;;19.13;82.06
69200;BME280;56313;49.804;9.952;2022-07-29T20:18:56;99336.06;;;19.92;76.89
69200;BME280;56313;49.804;9.952;2022-07-29T20:21:22;99334.84;;;19.14;79.29
69200;BME280;56313;49.804;9.952;2022-07-29T20:23:47;99340.25;;;18.92;81.10
69200;BME280;56313;49.804;9.952;2022-07-29T20:26:13;99339.94;;;19.15;79.16
69200;BME280;56313;49.804;9.952;2022-07-29T20:28:38;99346.69;;;18.55;82.04
69200;BME280;56313;49.804;9.952;2022-07-29T20:31:04;99332.69;;;18.75;81.23
69200;BME280;56313;49.804;9.952;2022-07-29T20:33:30;99330.88;;;18.89;80.04
69200;BME280;56313;49.804;9.952;2022-07-29T20:35:56;99327.66;;;19.01;79.92
69200;BME280;56313;49.804;9.952;2022-07-29T20:38:21;99307.81;;;18.96;79.75
69200;BME280;56313;49.804;9.952;2022-07-29T20:40:47;99290.19;;;18.68;80.69
69200;BME280;56313;49.804;9.952;2022-07-29T20:43:14;99274.38;;;19.56;76.36
69200;BME280;56313;49.804;9.952;2022-07-29T20:45:47;99247.53;;;19.98;75.85
69200;BME280;56313;49.804;9.952;2022-07-29T20:48:12;99230.88;;;19.44;78.57
69200;BME280;56313;49.804;9.952;2022-07-29T20:50:38;99231.09;;;19.15;81.16
69200;BME280;56313;49.804;9.952;2022-07-29T20:53:03;99238.63;;;19.05;79.67
69200;BME280;56313;49.804;9.952;2022-07-29T20:55:29;99238.44;;;19.06;79.57
69200;BME280;56313;49.804;9.952;2022-07-29T20:57:56;99243.69;;;18.72;81.47
69200;BME280;56313;49.804;9.952;2022-07-29T21:00:21;99255.63;;;18.41;82.85
69200;BME280;56313;49.804;9.952;2022-07-29T21:02:47;99264.53;;;18.89;81.52
69200;BME280;56313;49.804;9.952;2022-07-29T21:05:12;99267.34;;;19.96;75.45